Stena Germanica — SKPZ — position and weather

sailwx.info

Track history (hours):
 
Tides and Currents Weather Stations Pressure Air Temp Water Temp Dewpoint Dewpoint Depression Visibility Wind Speed Wind Dir Waves Ship Positions

Stena Germanica

Last reported at 2015-Aug-30 09:33 UTC. Time now 2015-Aug-30 10:00 UTC.
Position N 54°50' E 018°44'.

Length 176 m; draft 6.7 m.

Type: Ship (hazmat cat A). MMSI: 265292000.

Date/timePositionNaut miles runAvg speedWind from/ knotsBaromVisibWave heightAir tempDewpointWater temp
2015-Aug-30 09:33N 54°50' E 018°44'1515.0
2015-Aug-30 08:33N 54°36' E 018°55'1313.0
2015-Aug-30 07:33N 54°32' E 018°34'2 1.9
2015-Aug-30 06:33N 54°33' E 018°30'0 0.1
2015-Aug-30 05:33N 54°33' E 018°30'8 8.4
2015-Aug-30 04:34N 54°32' E 018°45'1413.8
2015-Aug-30 03:34N 54°46' E 018°50'1717.2
2015-Aug-30 02:34N 54°58' E 018°30'1717.5
2015-Aug-30 01:34N 55°08' E 018°05'1817.5
2015-Aug-30 00:34N 55°18' E 017°39'1817.5
2015-Aug-29 23:33N 55°27' E 017°13'1717.5
2015-Aug-29 22:33N 55°37' E 016°47'1817.5
2015-Aug-29 21:33N 55°46' E 016°21'1917.4
2015-Aug-29 20:29N 55°57' E 015°54'1415.4
2015-Aug-29 19:33N 56°06' E 015°34'4 4.0
2015-Aug-29 18:32N 56°10' E 015°38'0 0.0
2015-Aug-29 17:33N 56°10' E 015°38'1210.3
2015-Aug-29 16:25N 55°59' E 015°46'1517.4
2015-Aug-29 15:33N 55°51' E 016°09'8817.7
2015-Aug-29 10:33N 55°03' E 018°20'1817.9
2015-Aug-29 09:33N 54°51' E 018°42'1616.0
2015-Aug-29 08:34N 54°37' E 018°55'1312.8
2015-Aug-29 07:33N 54°32' E 018°34'2 2.1
2015-Aug-29 06:32N 54°33' E 018°30'0 0.0
2015-Aug-29 05:33N 54°33' E 018°30'8 8.2
2015-Aug-29 04:33N 54°32' E 018°44'1211.7
2015-Aug-29 03:33N 54°42' E 018°55'1413.8
2015-Aug-29 02:33N 54°53' E 018°39'1413.7
2015-Aug-29 01:33N 55°02' E 018°21'1414.0
2015-Aug-29 00:33N 55°10' E 018°01'1414.2
2015-Aug-28 23:33N 55°18' E 017°40'1414.1
2015-Aug-28 22:34N 55°25' E 017°19'7213.6
2015-Aug-28 17:14N 56°08' E 015°36'3 3.4
2015-Aug-28 16:29N 56°10' E 015°38'0 0.0
2015-Aug-28 15:29N 56°10' E 015°38'0 0.0
2015-Aug-28 14:32N 56°10' E 015°38'0 0.0
2015-Aug-28 13:29N 56°10' E 015°38'0 0.0
2015-Aug-28 12:32N 56°10' E 015°38'0 0.0
2015-Aug-28 11:32N 56°10' E 015°38'0 0.0
2015-Aug-28 10:23N 56°10' E 015°38'0 0.0
2015-Aug-28 09:32N 56°10' E 015°38'0 0.0
2015-Aug-28 08:29N 56°10' E 015°38'0 0.0
2015-Aug-28 07:17N 56°10' E 015°38'3 4.0
2015-Aug-28 06:34N 56°07' E 015°35'6815.4
2015-Aug-28 02:08N 55°27' E 017°13'2616.3
2015-Aug-28 00:34N 55°13' E 017°50'1616.4
2015-Aug-27 23:33N 55°04' E 018°14'1616.4
2015-Aug-27 22:34N 54°54' E 018°37'1616.3
2015-Aug-27 21:34N 54°43' E 018°58'1414.0
2015-Aug-27 20:34N 54°32' E 018°44'8 7.8
2015-Aug-27 19:33N 54°33' E 018°30'0 0.0
2015-Aug-27 18:34N 54°33' E 018°30'8 8.1
2015-Aug-27 17:33N 54°32' E 018°44'1414.0
2015-Aug-27 16:33N 54°46' E 018°50'1717.4
2015-Aug-27 15:33N 54°59' E 018°30'1716.9
2015-Aug-27 14:34N 55°08' E 018°05'10417.0
2015-Aug-27 08:28N 56°08' E 015°36'2 1.8
2015-Aug-27 07:23N 56°10' E 015°38'0 0.1
2015-Aug-27 06:33N 56°10' E 015°38'1111.3
2015-Aug-27 05:33N 55°60' E 015°46'1515.4
2015-Aug-27 04:33N 55°51' E 016°08'1515.5
2015-Aug-27 03:33N 55°42' E 016°31'1515.4
2015-Aug-27 02:33N 55°34' E 016°54'1515.4
2015-Aug-27 01:33N 55°25' E 017°17'1515.4
2015-Aug-27 00:33N 55°17' E 017°40'1515.5
2015-Aug-26 23:33N 55°08' E 018°02'1515.4
2015-Aug-26 22:33N 55°00' E 018°25'1515.3
2015-Aug-26 21:33N 54°50' E 018°44'1414.2
2015-Aug-26 20:33N 54°37' E 018°55'1313.0
2015-Aug-26 19:33N 54°32' E 018°34'2 2.1
2015-Aug-26 18:32N 54°33' E 018°30'1 0.8
2015-Aug-26 17:33N 54°32' E 018°31'1111.4
2015-Aug-26 16:34N 54°34' E 018°51'1414.4
2015-Aug-26 15:34N 54°48' E 018°46'1716.9
2015-Aug-26 14:34N 54°58' E 018°22'1716.9
2015-Aug-26 13:34N 55°09' E 017°59'10016.6
2015-Aug-26 07:31N 56°08' E 015°36'7911.3
2015-Aug-26 00:31N 55°21' E 017°28'1717.0
2015-Aug-25 23:30N 55°12' E 017°54'1617.0
2015-Aug-25 22:33N 55°03' E 018°17'1717.4
2015-Aug-25 21:34N 54°52' E 018°41'1716.5
2015-Aug-25 20:33N 54°38' E 018°56'1313.5
2015-Aug-25 19:33N 54°32' E 018°35'3 2.8
2015-Aug-25 18:30N 54°33' E 018°30'0 0.0
2015-Aug-25 17:33N 54°33' E 018°30'8 8.4
2015-Aug-25 16:33N 54°32' E 018°45'1313.1
2015-Aug-25 15:33N 54°45' E 018°52'1716.6
2015-Aug-25 14:33N 54°56' E 018°30'1716.9
2015-Aug-25 13:33N 55°07' E 018°07'10612.5
2015-Aug-25 05:08N 56°10' E 015°38'3 5.8
2015-Aug-25 04:33N 56°07' E 015°35'1312.7
2015-Aug-25 03:33N 55°58' E 015°51'1514.7
2015-Aug-25 02:33N 55°51' E 016°14'1514.6
2015-Aug-25 01:30N 55°40' E 016°34'1414.5
2015-Aug-25 00:33N 55°33' E 016°54'1514.5
2015-Aug-24 23:33N 55°25' E 017°16'1514.6
2015-Aug-24 22:33N 55°17' E 017°38'1514.7
2015-Aug-24 21:33N 55°09' E 017°59'1514.6
2015-Aug-24 20:33N 55°01' E 018°21'1514.5
2015-Aug-24 19:33N 54°52' E 018°40'1514.7
2015-Aug-24 18:33N 54°41' E 018°57'1413.5
2015-Aug-24 17:33N 54°32' E 018°40'6 5.5
2015-Aug-24 16:31N 54°33' E 018°30'0 0.0
2015-Aug-24 15:31N 54°33' E 018°30'0 0.0
2015-Aug-24 14:31N 54°33' E 018°30'0 0.0
2015-Aug-24 13:31N 54°33' E 018°30'0 0.0
2015-Aug-24 12:31N 54°33' E 018°30'0 0.0
2015-Aug-24 11:31N 54°33' E 018°30'0 0.0
2015-Aug-24 10:28N 54°33' E 018°30'0 0.0
2015-Aug-24 09:31N 54°33' E 018°30'0 0.0
2015-Aug-24 08:31N 54°33' E 018°30'0 0.0
2015-Aug-24 07:31N 54°33' E 018°30'1 0.8
2015-Aug-24 06:33N 54°32' E 018°31'1110.8
2015-Aug-24 05:34N 54°34' E 018°50'1312.5
2015-Aug-24 04:33N 54°46' E 018°49'1514.9
2015-Aug-24 03:34N 54°57' E 018°32'1514.8
2015-Aug-24 02:34N 55°06' E 018°11'1514.9
2015-Aug-24 01:34N 55°14' E 017°50'1514.9
2015-Aug-24 00:33N 55°22' E 017°27'1515.0
2015-Aug-23 23:33N 55°30' E 017°05'1615.7
2015-Aug-23 22:34N 55°39' E 016°42'1615.9
2015-Aug-23 21:34N 55°48' E 016°19'1515.2
2015-Aug-23 20:33N 55°56' E 015°56'1413.9
2015-Aug-23 19:31N 56°04' E 015°34'6 6.2
2015-Aug-23 18:30N 56°10' E 015°38'3 2.7
2015-Aug-23 17:34N 56°08' E 015°36'1514.5
2015-Aug-23 16:33N 55°57' E 015°53'1717.3
2015-Aug-23 15:33N 55°48' E 016°19'1717.1
2015-Aug-23 14:33N 55°38' E 016°44'1716.9
2015-Aug-23 13:33N 55°29' E 017°09'1717.1
2015-Aug-23 12:33N 55°19' E 017°35'1817.8
2015-Aug-23 11:33N 55°10' E 018°01'1817.7
2015-Aug-23 10:34N 55°00' E 018°27'1717.4
2015-Aug-23 09:33N 54°48' E 018°48'1414.4
2015-Aug-23 08:34N 54°33' E 018°51'1111.2
2015-Aug-23 07:33N 54°32' E 018°31'1 0.7
2015-Aug-23 06:33N 54°33' E 018°30'0 0.0
2015-Aug-23 05:33N 54°33' E 018°30'5 4.9
2015-Aug-23 04:33N 54°32' E 018°39'1413.6
2015-Aug-23 03:34N 54°42' E 018°55'1716.8
2015-Aug-23 02:34N 54°55' E 018°37'1716.8
2015-Aug-23 01:34N 55°05' E 018°14'1716.7
2015-Aug-23 00:34N 55°15' E 017°49'1716.7
2015-Aug-22 23:34N 55°23' E 017°24'1716.8
2015-Aug-22 22:34N 55°32' E 016°59'1716.7
2015-Aug-22 21:33N 55°41' E 016°33'1716.7
2015-Aug-22 20:33N 55°51' E 016°10'1716.7
2015-Aug-22 19:33N 55°60' E 015°45'1110.7
2015-Aug-22 18:33N 56°10' E 015°37'0 0.2
2015-Aug-22 17:33N 56°10' E 015°38'8 8.4
2015-Aug-22 16:33N 56°02' E 015°40'1716.7
2015-Aug-22 15:34N 55°52' E 016°04'1717.1
2015-Aug-22 14:34N 55°42' E 016°30'1716.8
2015-Aug-22 13:34N 55°34' E 016°55'1716.7
2015-Aug-22 12:33N 55°25' E 017°20'1717.3
2015-Aug-22 11:33N 55°15' E 017°45'1717.2
2015-Aug-22 10:33N 55°06' E 018°11'1717.4
2015-Aug-22 09:33N 54°56' E 018°36'1817.5
2015-Aug-22 08:33N 54°43' E 018°55'1313.5
2015-Aug-22 07:33N 54°32' E 018°41'6 6.3
2015-Aug-22 06:32N 54°33' E 018°30'0 0.0
2015-Aug-22 05:33N 54°33' E 018°30'5 5.1
2015-Aug-22 04:33N 54°32' E 018°39'1312.6
2015-Aug-22 03:33N 54°40' E 018°56'1514.7
2015-Aug-22 02:33N 54°52' E 018°41'1514.8
2015-Aug-22 01:33N 55°02' E 018°22'1515.0
2015-Aug-22 00:33N 55°10' E 017°60'1515.2
2015-Aug-21 23:33N 55°19' E 017°38'1515.5
2015-Aug-21 22:33N 55°27' E 017°15'1515.1
2015-Aug-21 21:33N 55°36' E 016°53'1515.3
2015-Aug-21 20:33N 55°44' E 016°31'1615.9
2015-Aug-21 19:34N 55°52' E 016°06'1514.6
2015-Aug-21 18:33N 56°00' E 015°44'1010.2
2015-Aug-21 17:33N 56°10' E 015°37'0 0.4
2015-Aug-21 16:32N 56°10' E 015°38'0 0.0
2015-Aug-21 15:32N 56°10' E 015°38'0 0.0
2015-Aug-21 14:32N 56°10' E 015°38'0 0.0
2015-Aug-21 13:14N 56°10' E 015°38'0 0.0
2015-Aug-21 12:32N 56°10' E 015°38'0 0.0
2015-Aug-21 11:32N 56°10' E 015°38'0 0.0
2015-Aug-21 10:26N 56°10' E 015°38'0 0.0
2015-Aug-21 09:26N 56°10' E 015°38'0 0.0
2015-Aug-21 08:32N 56°10' E 015°38'0 0.0
2015-Aug-21 07:32N 56°10' E 015°38'3 3.1
2015-Aug-21 06:33N 56°07' E 015°35'1714.2
2015-Aug-21 05:22N 55°56' E 015°57'2016.5
2015-Aug-21 04:08N 55°44' E 016°26'1016.3
2015-Aug-21 03:31N 55°38' E 016°41'2016.3
2015-Aug-21 02:17N 55°27' E 017°11'1216.3
2015-Aug-21 01:33N 55°21' E 017°28'1616.5
2015-Aug-21 00:33N 55°11' E 017°53'1717.0
2015-Aug-20 23:33N 55°03' E 018°18'1817.6
2015-Aug-20 22:33N 54°51' E 018°41'1615.8
2015-Aug-20 21:33N 54°38' E 018°55'1312.8
2015-Aug-20 20:33N 54°32' E 018°36'3 3.3
2015-Aug-20 19:33N 54°33' E 018°30'0 0.2
2015-Aug-20 18:33N 54°33' E 018°31'9 8.9
2015-Aug-20 17:33N 54°32' E 018°46'1413.7
2015-Aug-20 16:34N 54°46' E 018°50'1716.8
2015-Aug-20 15:33N 54°58' E 018°30'1716.7
2015-Aug-20 14:33N 55°08' E 018°06'1717.3
2015-Aug-20 13:34N 55°17' E 017°41'1817.6
2015-Aug-20 12:34N 55°27' E 017°15'1817.8
2015-Aug-20 11:33N 55°37' E 016°49'1818.2
2015-Aug-20 10:33N 55°47' E 016°22'  
Track history (hours):
 
Tides and Currents Weather Stations Pressure Air Temp Water Temp Dewpoint Dewpoint Depression Visibility Wind Speed Wind Dir Waves Ship Positions

Stena Germanica

Last reported at 2015-Aug-30 09:33 UTC. Time now 2015-Aug-30 10:00 UTC.
Position N 54°50' E 018°44'.

Length 176 m; draft 6.7 m.

Type: Ship (hazmat cat A). MMSI: 265292000.

Date/timePositionNaut miles runAvg speedWind from/ knotsBaromVisibWave heightAir tempDewpointWater temp
2015-Aug-30 09:33N 54°50' E 018°44'1515.0
2015-Aug-30 08:33N 54°36' E 018°55'1313.0
2015-Aug-30 07:33N 54°32' E 018°34'2 1.9
2015-Aug-30 06:33N 54°33' E 018°30'0 0.1
2015-Aug-30 05:33N 54°33' E 018°30'8 8.4
2015-Aug-30 04:34N 54°32' E 018°45'1413.8
2015-Aug-30 03:34N 54°46' E 018°50'1717.2
2015-Aug-30 02:34N 54°58' E 018°30'1717.5
2015-Aug-30 01:34N 55°08' E 018°05'1817.5
2015-Aug-30 00:34N 55°18' E 017°39'1817.5
2015-Aug-29 23:33N 55°27' E 017°13'1717.5
2015-Aug-29 22:33N 55°37' E 016°47'1817.5
2015-Aug-29 21:33N 55°46' E 016°21'1917.4
2015-Aug-29 20:29N 55°57' E 015°54'1415.4
2015-Aug-29 19:33N 56°06' E 015°34'4 4.0
2015-Aug-29 18:32N 56°10' E 015°38'0 0.0
2015-Aug-29 17:33N 56°10' E 015°38'1210.3
2015-Aug-29 16:25N 55°59' E 015°46'1517.4
2015-Aug-29 15:33N 55°51' E 016°09'8817.7
2015-Aug-29 10:33N 55°03' E 018°20'1817.9
2015-Aug-29 09:33N 54°51' E 018°42'1616.0
2015-Aug-29 08:34N 54°37' E 018°55'1312.8
2015-Aug-29 07:33N 54°32' E 018°34'2 2.1
2015-Aug-29 06:32N 54°33' E 018°30'0 0.0
2015-Aug-29 05:33N 54°33' E 018°30'8 8.2
2015-Aug-29 04:33N 54°32' E 018°44'1211.7
2015-Aug-29 03:33N 54°42' E 018°55'1413.8
2015-Aug-29 02:33N 54°53' E 018°39'1413.7
2015-Aug-29 01:33N 55°02' E 018°21'1414.0
2015-Aug-29 00:33N 55°10' E 018°01'1414.2
2015-Aug-28 23:33N 55°18' E 017°40'1414.1
2015-Aug-28 22:34N 55°25' E 017°19'7213.6
2015-Aug-28 17:14N 56°08' E 015°36'3 3.4
2015-Aug-28 16:29N 56°10' E 015°38'0 0.0
2015-Aug-28 15:29N 56°10' E 015°38'0 0.0
2015-Aug-28 14:32N 56°10' E 015°38'0 0.0
2015-Aug-28 13:29N 56°10' E 015°38'0 0.0
2015-Aug-28 12:32N 56°10' E 015°38'0 0.0
2015-Aug-28 11:32N 56°10' E 015°38'0 0.0
2015-Aug-28 10:23N 56°10' E 015°38'0 0.0
2015-Aug-28 09:32N 56°10' E 015°38'0 0.0
2015-Aug-28 08:29N 56°10' E 015°38'0 0.0
2015-Aug-28 07:17N 56°10' E 015°38'3 4.0
2015-Aug-28 06:34N 56°07' E 015°35'6815.4
2015-Aug-28 02:08N 55°27' E 017°13'2616.3
2015-Aug-28 00:34N 55°13' E 017°50'1616.4
2015-Aug-27 23:33N 55°04' E 018°14'1616.4
2015-Aug-27 22:34N 54°54' E 018°37'1616.3
2015-Aug-27 21:34N 54°43' E 018°58'1414.0
2015-Aug-27 20:34N 54°32' E 018°44'8 7.8
2015-Aug-27 19:33N 54°33' E 018°30'0 0.0
2015-Aug-27 18:34N 54°33' E 018°30'8 8.1
2015-Aug-27 17:33N 54°32' E 018°44'1414.0
2015-Aug-27 16:33N 54°46' E 018°50'1717.4
2015-Aug-27 15:33N 54°59' E 018°30'1716.9
2015-Aug-27 14:34N 55°08' E 018°05'10417.0
2015-Aug-27 08:28N 56°08' E 015°36'2 1.8
2015-Aug-27 07:23N 56°10' E 015°38'0 0.1
2015-Aug-27 06:33N 56°10' E 015°38'1111.3
2015-Aug-27 05:33N 55°60' E 015°46'1515.4
2015-Aug-27 04:33N 55°51' E 016°08'1515.5
2015-Aug-27 03:33N 55°42' E 016°31'1515.4
2015-Aug-27 02:33N 55°34' E 016°54'1515.4
2015-Aug-27 01:33N 55°25' E 017°17'1515.4
2015-Aug-27 00:33N 55°17' E 017°40'1515.5
2015-Aug-26 23:33N 55°08' E 018°02'1515.4
2015-Aug-26 22:33N 55°00' E 018°25'1515.3
2015-Aug-26 21:33N 54°50' E 018°44'1414.2
2015-Aug-26 20:33N 54°37' E 018°55'1313.0
2015-Aug-26 19:33N 54°32' E 018°34'2 2.1
2015-Aug-26 18:32N 54°33' E 018°30'1 0.8
2015-Aug-26 17:33N 54°32' E 018°31'1111.4
2015-Aug-26 16:34N 54°34' E 018°51'1414.4
2015-Aug-26 15:34N 54°48' E 018°46'1716.9
2015-Aug-26 14:34N 54°58' E 018°22'1716.9
2015-Aug-26 13:34N 55°09' E 017°59'10016.6
2015-Aug-26 07:31N 56°08' E 015°36'7911.3
2015-Aug-26 00:31N 55°21' E 017°28'1717.0
2015-Aug-25 23:30N 55°12' E 017°54'1617.0
2015-Aug-25 22:33N 55°03' E 018°17'1717.4
2015-Aug-25 21:34N 54°52' E 018°41'1716.5
2015-Aug-25 20:33N 54°38' E 018°56'1313.5
2015-Aug-25 19:33N 54°32' E 018°35'3 2.8
2015-Aug-25 18:30N 54°33' E 018°30'0 0.0
2015-Aug-25 17:33N 54°33' E 018°30'8 8.4
2015-Aug-25 16:33N 54°32' E 018°45'1313.1
2015-Aug-25 15:33N 54°45' E 018°52'1716.6
2015-Aug-25 14:33N 54°56' E 018°30'1716.9
2015-Aug-25 13:33N 55°07' E 018°07'10612.5
2015-Aug-25 05:08N 56°10' E 015°38'3 5.8
2015-Aug-25 04:33N 56°07' E 015°35'1312.7
2015-Aug-25 03:33N 55°58' E 015°51'1514.7
2015-Aug-25 02:33N 55°51' E 016°14'1514.6
2015-Aug-25 01:30N 55°40' E 016°34'1414.5
2015-Aug-25 00:33N 55°33' E 016°54'1514.5
2015-Aug-24 23:33N 55°25' E 017°16'1514.6
2015-Aug-24 22:33N 55°17' E 017°38'1514.7
2015-Aug-24 21:33N 55°09' E 017°59'1514.6
2015-Aug-24 20:33N 55°01' E 018°21'1514.5
2015-Aug-24 19:33N 54°52' E 018°40'1514.7
2015-Aug-24 18:33N 54°41' E 018°57'1413.5
2015-Aug-24 17:33N 54°32' E 018°40'6 5.5
2015-Aug-24 16:31N 54°33' E 018°30'0 0.0
2015-Aug-24 15:31N 54°33' E 018°30'0 0.0
2015-Aug-24 14:31N 54°33' E 018°30'0 0.0
2015-Aug-24 13:31N 54°33' E 018°30'0 0.0
2015-Aug-24 12:31N 54°33' E 018°30'0 0.0
2015-Aug-24 11:31N 54°33' E 018°30'0 0.0
2015-Aug-24 10:28N 54°33' E 018°30'0 0.0
2015-Aug-24 09:31N 54°33' E 018°30'0 0.0
2015-Aug-24 08:31N 54°33' E 018°30'0 0.0
2015-Aug-24 07:31N 54°33' E 018°30'1 0.8
2015-Aug-24 06:33N 54°32' E 018°31'1110.8
2015-Aug-24 05:34N 54°34' E 018°50'1312.5
2015-Aug-24 04:33N 54°46' E 018°49'1514.9
2015-Aug-24 03:34N 54°57' E 018°32'1514.8
2015-Aug-24 02:34N 55°06' E 018°11'1514.9
2015-Aug-24 01:34N 55°14' E 017°50'1514.9
2015-Aug-24 00:33N 55°22' E 017°27'1515.0
2015-Aug-23 23:33N 55°30' E 017°05'1615.7
2015-Aug-23 22:34N 55°39' E 016°42'1615.9
2015-Aug-23 21:34N 55°48' E 016°19'1515.2
2015-Aug-23 20:33N 55°56' E 015°56'1413.9
2015-Aug-23 19:31N 56°04' E 015°34'6 6.2
2015-Aug-23 18:30N 56°10' E 015°38'3 2.7
2015-Aug-23 17:34N 56°08' E 015°36'1514.5
2015-Aug-23 16:33N 55°57' E 015°53'1717.3
2015-Aug-23 15:33N 55°48' E 016°19'1717.1
2015-Aug-23 14:33N 55°38' E 016°44'1716.9
2015-Aug-23 13:33N 55°29' E 017°09'1717.1
2015-Aug-23 12:33N 55°19' E 017°35'1817.8
2015-Aug-23 11:33N 55°10' E 018°01'1817.7
2015-Aug-23 10:34N 55°00' E 018°27'1717.4
2015-Aug-23 09:33N 54°48' E 018°48'1414.4
2015-Aug-23 08:34N 54°33' E 018°51'1111.2
2015-Aug-23 07:33N 54°32' E 018°31'1 0.7
2015-Aug-23 06:33N 54°33' E 018°30'0 0.0
2015-Aug-23 05:33N 54°33' E 018°30'5 4.9
2015-Aug-23 04:33N 54°32' E 018°39'1413.6
2015-Aug-23 03:34N 54°42' E 018°55'1716.8
2015-Aug-23 02:34N 54°55' E 018°37'1716.8
2015-Aug-23 01:34N 55°05' E 018°14'1716.7
2015-Aug-23 00:34N 55°15' E 017°49'1716.7
2015-Aug-22 23:34N 55°23' E 017°24'1716.8
2015-Aug-22 22:34N 55°32' E 016°59'1716.7
2015-Aug-22 21:33N 55°41' E 016°33'1716.7
2015-Aug-22 20:33N 55°51' E 016°10'1716.7
2015-Aug-22 19:33N 55°60' E 015°45'1110.7
2015-Aug-22 18:33N 56°10' E 015°37'0 0.2
2015-Aug-22 17:33N 56°10' E 015°38'8 8.4
2015-Aug-22 16:33N 56°02' E 015°40'1716.7
2015-Aug-22 15:34N 55°52' E 016°04'1717.1
2015-Aug-22 14:34N 55°42' E 016°30'1716.8
2015-Aug-22 13:34N 55°34' E 016°55'1716.7
2015-Aug-22 12:33N 55°25' E 017°20'1717.3
2015-Aug-22 11:33N 55°15' E 017°45'1717.2
2015-Aug-22 10:33N 55°06' E 018°11'1717.4
2015-Aug-22 09:33N 54°56' E 018°36'1817.5
2015-Aug-22 08:33N 54°43' E 018°55'1313.5
2015-Aug-22 07:33N 54°32' E 018°41'6 6.3
2015-Aug-22 06:32N 54°33' E 018°30'0 0.0
2015-Aug-22 05:33N 54°33' E 018°30'5 5.1
2015-Aug-22 04:33N 54°32' E 018°39'1312.6
2015-Aug-22 03:33N 54°40' E 018°56'1514.7
2015-Aug-22 02:33N 54°52' E 018°41'1514.8
2015-Aug-22 01:33N 55°02' E 018°22'1515.0
2015-Aug-22 00:33N 55°10' E 017°60'1515.2
2015-Aug-21 23:33N 55°19' E 017°38'1515.5
2015-Aug-21 22:33N 55°27' E 017°15'1515.1
2015-Aug-21 21:33N 55°36' E 016°53'1515.3
2015-Aug-21 20:33N 55°44' E 016°31'1615.9
2015-Aug-21 19:34N 55°52' E 016°06'1514.6
2015-Aug-21 18:33N 56°00' E 015°44'1010.2
2015-Aug-21 17:33N 56°10' E 015°37'0 0.4
2015-Aug-21 16:32N 56°10' E 015°38'0 0.0
2015-Aug-21 15:32N 56°10' E 015°38'0 0.0
2015-Aug-21 14:32N 56°10' E 015°38'0 0.0
2015-Aug-21 13:14N 56°10' E 015°38'0 0.0
2015-Aug-21 12:32N 56°10' E 015°38'0 0.0
2015-Aug-21 11:32N 56°10' E 015°38'0 0.0
2015-Aug-21 10:26N 56°10' E 015°38'0 0.0
2015-Aug-21 09:26N 56°10' E 015°38'0 0.0
2015-Aug-21 08:32N 56°10' E 015°38'0 0.0
2015-Aug-21 07:32N 56°10' E 015°38'3 3.1
2015-Aug-21 06:33N 56°07' E 015°35'1714.2
2015-Aug-21 05:22N 55°56' E 015°57'2016.5
2015-Aug-21 04:08N 55°44' E 016°26'1016.3
2015-Aug-21 03:31N 55°38' E 016°41'2016.3
2015-Aug-21 02:17N 55°27' E 017°11'1216.3
2015-Aug-21 01:33N 55°21' E 017°28'1616.5
2015-Aug-21 00:33N 55°11' E 017°53'1717.0
2015-Aug-20 23:33N 55°03' E 018°18'1817.6
2015-Aug-20 22:33N 54°51' E 018°41'1615.8
2015-Aug-20 21:33N 54°38' E 018°55'1312.8
2015-Aug-20 20:33N 54°32' E 018°36'3 3.3
2015-Aug-20 19:33N 54°33' E 018°30'0 0.2
2015-Aug-20 18:33N 54°33' E 018°31'9 8.9
2015-Aug-20 17:33N 54°32' E 018°46'1413.7
2015-Aug-20 16:34N 54°46' E 018°50'1716.8
2015-Aug-20 15:33N 54°58' E 018°30'1716.7
2015-Aug-20 14:33N 55°08' E 018°06'1717.3
2015-Aug-20 13:34N 55°17' E 017°41'1817.6
2015-Aug-20 12:34N 55°27' E 017°15'1817.8
2015-Aug-20 11:33N 55°37' E 016°49'1818.2
2015-Aug-20 10:33N 55°47' E 016°22'  

Dump ship's entire track history